Terminal Aerodrome Forecast
Issued by NWS Charleston, WV

Current Version | Previous Version | Graphics & Text | Print | Product List | Glossary On
Versions: 1 2 3 4 5 6 7 8 9 10 11 12 13 14 15 16 17 18 19 20 21 22 23 24 25 26 27 28 29
000
FTUS41 KRLX 010500 RRA
TAFCRW
TAF
KCRW 010542Z 0106/0206 00000KT 4SM BR FEW002 BKN250
      TEMPO 0108/0111 2SM BR BKN001
     FM011200 00000KT 3SM BR SCT001 BKN250
     FM011300 00000KT P6SM BKN250
     FM011500 12005KT P6SM VCSH BKN050=

USA.gov is the U.S. government's official web portal to all federal, state and local government web resources and services.